sensor_id;sensor_type;location;lat;lon;timestamp;temperature;humidity
12872;DHT22;6504;53.766;9.626;2023-05-25T00:00:46;11.70;99.90
12872;DHT22;6504;53.766;9.626;2023-05-25T00:03:28;11.70;99.90
12872;DHT22;6504;53.766;9.626;2023-05-25T00:05:57;11.70;99.90
12872;DHT22;6504;53.766;9.626;2023-05-25T00:08:27;11.70;99.90
12872;DHT22;6504;53.766;9.626;2023-05-25T00:10:55;11.70;99.90
12872;DHT22;6504;53.766;9.626;2023-05-25T00:13:25;11.70;99.90
12872;DHT22;6504;53.766;9.626;2023-05-25T00:15:53;11.70;99.90
12872;DHT22;6504;53.766;9.626;2023-05-25T00:18:21;11.80;99.90
12872;DHT22;6504;53.766;9.626;2023-05-25T00:20:50;11.70;99.90
12872;DHT22;6504;53.766;9.626;2023-05-25T00:23:20;11.70;99.90
12872;DHT22;6504;53.766;9.626;2023-05-25T00:25:48;11.60;99.90
12872;DHT22;6504;53.766;9.626;2023-05-25T00:28:16;11.60;99.90
12872;DHT22;6504;53.766;9.626;2023-05-25T00:30:46;11.60;99.90
12872;DHT22;6504;53.766;9.626;2023-05-25T00:33:14;11.60;99.90
12872;DHT22;6504;53.766;9.626;2023-05-25T00:35:42;11.60;99.90
12872;DHT22;6504;53.766;9.626;2023-05-25T00:38:12;11.60;99.90
12872;DHT22;6504;53.766;9.626;2023-05-25T00:40:40;11.60;99.90
12872;DHT22;6504;53.766;9.626;2023-05-25T00:43:09;11.60;99.90
12872;DHT22;6504;53.766;9.626;2023-05-25T00:45:37;11.60;99.90
12872;DHT22;6504;53.766;9.626;2023-05-25T00:48:07;11.50;99.90
12872;DHT22;6504;53.766;9.626;2023-05-25T00:50:38;11.50;99.90
12872;DHT22;6504;53.766;9.626;2023-05-25T00:53:08;11.50;99.90
12872;DHT22;6504;53.766;9.626;2023-05-25T00:55:40;11.50;99.90
12872;DHT22;6504;53.766;9.626;2023-05-25T00:58:12;11.50;99.90
12872;DHT22;6504;53.766;9.626;2023-05-25T01:00:44;11.40;99.90
12872;DHT22;6504;53.766;9.626;2023-05-25T01:03:19;11.40;99.90
12872;DHT22;6504;53.766;9.626;2023-05-25T01:05:50;11.40;99.90
12872;DHT22;6504;53.766;9.626;2023-05-25T01:08:22;11.40;99.90
12872;DHT22;6504;53.766;9.626;2023-05-25T01:10:51;11.30;99.90
12872;DHT22;6504;53.766;9.626;2023-05-25T01:13:20;11.30;99.90
12872;DHT22;6504;53.766;9.626;2023-05-25T01:15:49;11.30;99.90
12872;DHT22;6504;53.766;9.626;2023-05-25T01:18:19;11.20;99.90
12872;DHT22;6504;53.766;9.626;2023-05-25T01:20:56;11.20;99.90
12872;DHT22;6504;53.766;9.626;2023-05-25T01:23:32;11.10;99.90
12872;DHT22;6504;53.766;9.626;2023-05-25T01:26:04;11.10;99.90
12872;DHT22;6504;53.766;9.626;2023-05-25T01:28:38;11.10;99.90
12872;DHT22;6504;53.766;9.626;2023-05-25T01:31:08;11.00;99.90
12872;DHT22;6504;53.766;9.626;2023-05-25T01:33:37;11.00;99.90
12872;DHT22;6504;53.766;9.626;2023-05-25T01:36:07;10.90;99.90
12872;DHT22;6504;53.766;9.626;2023-05-25T01:38:36;10.90;99.90
12872;DHT22;6504;53.766;9.626;2023-05-25T01:41:04;10.90;99.90
12872;DHT22;6504;53.766;9.626;2023-05-25T01:43:32;10.90;99.90
12872;DHT22;6504;53.766;9.626;2023-05-25T01:46:08;10.90;99.90
12872;DHT22;6504;53.766;9.626;2023-05-25T01:48:44;10.90;99.90
12872;DHT22;6504;53.766;9.626;2023-05-25T01:51:23;10.90;99.90
12872;DHT22;6504;53.766;9.626;2023-05-25T01:53:57;10.80;99.90
12872;DHT22;6504;53.766;9.626;2023-05-25T01:56:28;10.80;99.90
12872;DHT22;6504;53.766;9.626;2023-05-25T01:59:00;10.80;99.90
12872;DHT22;6504;53.766;9.626;2023-05-25T02:01:30;10.80;99.90
12872;DHT22;6504;53.766;9.626;2023-05-25T02:03:59;10.70;99.90
12872;DHT22;6504;53.766;9.626;2023-05-25T02:06:29;10.70;99.90
12872;DHT22;6504;53.766;9.626;2023-05-25T02:08:57;10.70;99.90
12872;DHT22;6504;53.766;9.626;2023-05-25T02:11:25;10.70;99.90
12872;DHT22;6504;53.766;9.626;2023-05-25T02:13:53;10.60;99.90
12872;DHT22;6504;53.766;9.626;2023-05-25T02:16:21;10.60;99.90
12872;DHT22;6504;53.766;9.626;2023-05-25T02:18:50;10.60;99.90
12872;DHT22;6504;53.766;9.626;2023-05-25T02:21:18;10.60;99.90
12872;DHT22;6504;53.766;9.626;2023-05-25T02:23:48;10.60;99.90
12872;DHT22;6504;53.766;9.626;2023-05-25T02:26:16;10.50;99.90
12872;DHT22;6504;53.766;9.626;2023-05-25T02:28:44;10.50;99.90
12872;DHT22;6504;53.766;9.626;2023-05-25T02:31:12;10.50;99.90
12872;DHT22;6504;53.766;9.626;2023-05-25T02:33:40;10.50;99.90
12872;DHT22;6504;53.766;9.626;2023-05-25T02:36:08;10.50;99.90
12872;DHT22;6504;53.766;9.626;2023-05-25T02:38:36;10.50;99.90
12872;DHT22;6504;53.766;9.626;2023-05-25T02:41:06;10.50;99.90
12872;DHT22;6504;53.766;9.626;2023-05-25T02:43:34;10.50;99.90
12872;DHT22;6504;53.766;9.626;2023-05-25T02:46:02;10.50;99.90
12872;DHT22;6504;53.766;9.626;2023-05-25T02:48:30;10.50;99.90
12872;DHT22;6504;53.766;9.626;2023-05-25T02:50:58;10.50;99.90
12872;DHT22;6504;53.766;9.626;2023-05-25T02:53:26;10.40;99.90
12872;DHT22;6504;53.766;9.626;2023-05-25T02:55:54;10.50;99.90
12872;DHT22;6504;53.766;9.626;2023-05-25T02:58:23;10.50;99.90
12872;DHT22;6504;53.766;9.626;2023-05-25T03:00:51;10.50;99.90
12872;DHT22;6504;53.766;9.626;2023-05-25T03:03:20;10.50;99.90
12872;DHT22;6504;53.766;9.626;2023-05-25T03:05:48;10.40;99.90
12872;DHT22;6504;53.766;9.626;2023-05-25T03:08:17;10.40;99.90
12872;DHT22;6504;53.766;9.626;2023-05-25T03:10:45;10.50;99.90
12872;DHT22;6504;53.766;9.626;2023-05-25T03:13:13;10.50;99.90
12872;DHT22;6504;53.766;9.626;2023-05-25T03:15:43;10.50;99.90
12872;DHT22;6504;53.766;9.626;2023-05-25T03:18:11;10.50;99.90
12872;DHT22;6504;53.766;9.626;2023-05-25T03:20:39;10.50;99.90
12872;DHT22;6504;53.766;9.626;2023-05-25T03:23:07;10.40;99.90
12872;DHT22;6504;53.766;9.626;2023-05-25T03:25:36;10.40;99.90
12872;DHT22;6504;53.766;9.626;2023-05-25T03:28:04;10.40;99.90
12872;DHT22;6504;53.766;9.626;2023-05-25T03:30:32;10.30;99.90
12872;DHT22;6504;53.766;9.626;2023-05-25T03:33:01;10.30;99.90
12872;DHT22;6504;53.766;9.626;2023-05-25T03:35:29;10.30;99.90
12872;DHT22;6504;53.766;9.626;2023-05-25T03:37:58;10.30;99.90
12872;DHT22;6504;53.766;9.626;2023-05-25T03:40:26;10.30;99.90
12872;DHT22;6504;53.766;9.626;2023-05-25T03:42:54;10.30;99.90
12872;DHT22;6504;53.766;9.626;2023-05-25T03:45:22;10.30;99.90
12872;DHT22;6504;53.766;9.626;2023-05-25T03:47:50;10.30;99.90
12872;DHT22;6504;53.766;9.626;2023-05-25T03:50:19;10.30;99.90
12872;DHT22;6504;53.766;9.626;2023-05-25T03:52:47;10.30;99.90
12872;DHT22;6504;53.766;9.626;2023-05-25T03:55:16;10.30;99.90
12872;DHT22;6504;53.766;9.626;2023-05-25T03:57:44;10.30;99.90
12872;DHT22;6504;53.766;9.626;2023-05-25T04:00:13;10.30;99.90
12872;DHT22;6504;53.766;9.626;2023-05-25T04:02:41;10.40;99.90
12872;DHT22;6504;53.766;9.626;2023-05-25T04:05:09;10.30;99.90
12872;DHT22;6504;53.766;9.626;2023-05-25T04:07:39;10.40;99.90
12872;DHT22;6504;53.766;9.626;2023-05-25T04:10:08;10.40;99.90
12872;DHT22;6504;53.766;9.626;2023-05-25T04:12:36;10.40;99.90
12872;DHT22;6504;53.766;9.626;2023-05-25T04:15:05;10.40;99.90
12872;DHT22;6504;53.766;9.626;2023-05-25T04:17:35;10.40;99.90
12872;DHT22;6504;53.766;9.626;2023-05-25T04:20:06;10.40;99.90
12872;DHT22;6504;53.766;9.626;2023-05-25T04:22:35;10.40;99.90
12872;DHT22;6504;53.766;9.626;2023-05-25T04:25:06;10.40;99.90
12872;DHT22;6504;53.766;9.626;2023-05-25T04:27:36;10.40;99.90
12872;DHT22;6504;53.766;9.626;2023-05-25T04:30:05;10.40;99.90
12872;DHT22;6504;53.766;9.626;2023-05-25T04:32:34;10.40;99.90
12872;DHT22;6504;53.766;9.626;2023-05-25T04:35:03;10.40;99.90
12872;DHT22;6504;53.766;9.626;2023-05-25T04:37:32;10.40;99.90
12872;DHT22;6504;53.766;9.626;2023-05-25T04:40:03;10.50;99.90
12872;DHT22;6504;53.766;9.626;2023-05-25T04:42:37;10.50;99.90
12872;DHT22;6504;53.766;9.626;2023-05-25T04:45:06;10.50;99.90
12872;DHT22;6504;53.766;9.626;2023-05-25T04:47:36;10.50;99.90
12872;DHT22;6504;53.766;9.626;2023-05-25T04:50:08;10.50;99.90
12872;DHT22;6504;53.766;9.626;2023-05-25T04:52:36;10.50;99.90
12872;DHT22;6504;53.766;9.626;2023-05-25T04:55:05;10.60;99.90
12872;DHT22;6504;53.766;9.626;2023-05-25T04:57:33;10.60;99.90
12872;DHT22;6504;53.766;9.626;2023-05-25T05:00:04;10.60;99.90
12872;DHT22;6504;53.766;9.626;2023-05-25T05:02:33;10.70;99.90
12872;DHT22;6504;53.766;9.626;2023-05-25T05:05:01;10.70;99.90
12872;DHT22;6504;53.766;9.626;2023-05-25T05:07:29;10.80;99.90
12872;DHT22;6504;53.766;9.626;2023-05-25T05:09:57;10.80;99.90
12872;DHT22;6504;53.766;9.626;2023-05-25T05:12:25;10.90;99.90
12872;DHT22;6504;53.766;9.626;2023-05-25T05:14:53;10.90;99.90
12872;DHT22;6504;53.766;9.626;2023-05-25T05:17:23;10.90;99.90
12872;DHT22;6504;53.766;9.626;2023-05-25T05:19:52;11.00;99.90
12872;DHT22;6504;53.766;9.626;2023-05-25T05:22:20;11.00;99.90
12872;DHT22;6504;53.766;9.626;2023-05-25T05:24:48;11.00;99.90
12872;DHT22;6504;53.766;9.626;2023-05-25T05:27:16;11.10;99.90
12872;DHT22;6504;53.766;9.626;2023-05-25T05:29:44;11.10;99.90
12872;DHT22;6504;53.766;9.626;2023-05-25T05:32:12;11.10;99.90
12872;DHT22;6504;53.766;9.626;2023-05-25T05:34:42;11.20;99.90
12872;DHT22;6504;53.766;9.626;2023-05-25T05:37:10;11.20;99.90
12872;DHT22;6504;53.766;9.626;2023-05-25T05:39:38;11.20;99.90
12872;DHT22;6504;53.766;9.626;2023-05-25T05:42:06;11.20;99.90
12872;DHT22;6504;53.766;9.626;2023-05-25T05:44:35;11.30;99.90
12872;DHT22;6504;53.766;9.626;2023-05-25T05:47:03;11.30;99.90
12872;DHT22;6504;53.766;9.626;2023-05-25T05:49:31;11.40;99.90
12872;DHT22;6504;53.766;9.626;2023-05-25T05:52:02;11.40;99.90
12872;DHT22;6504;53.766;9.626;2023-05-25T05:54:32;11.40;99.90
12872;DHT22;6504;53.766;9.626;2023-05-25T05:57:00;11.50;99.90
12872;DHT22;6504;53.766;9.626;2023-05-25T05:59:29;11.50;99.90
12872;DHT22;6504;53.766;9.626;2023-05-25T06:01:57;11.60;99.90
12872;DHT22;6504;53.766;9.626;2023-05-25T06:04:25;11.60;99.90
12872;DHT22;6504;53.766;9.626;2023-05-25T06:06:54;11.70;99.90
12872;DHT22;6504;53.766;9.626;2023-05-25T06:09:24;11.70;99.90
12872;DHT22;6504;53.766;9.626;2023-05-25T06:11:53;11.80;99.90
12872;DHT22;6504;53.766;9.626;2023-05-25T06:14:21;11.80;99.90
12872;DHT22;6504;53.766;9.626;2023-05-25T06:16:50;11.90;99.90
12872;DHT22;6504;53.766;9.626;2023-05-25T06:19:19;12.00;99.90
12872;DHT22;6504;53.766;9.626;2023-05-25T06:21:47;12.10;99.90
12872;DHT22;6504;53.766;9.626;2023-05-25T06:24:15;12.20;99.90
12872;DHT22;6504;53.766;9.626;2023-05-25T06:26:44;12.20;99.90
12872;DHT22;6504;53.766;9.626;2023-05-25T06:29:13;12.30;99.90
12872;DHT22;6504;53.766;9.626;2023-05-25T06:31:43;12.40;99.90
12872;DHT22;6504;53.766;9.626;2023-05-25T06:34:11;12.50;99.90
12872;DHT22;6504;53.766;9.626;2023-05-25T06:36:39;12.60;99.90
12872;DHT22;6504;53.766;9.626;2023-05-25T06:39:07;12.60;99.90
12872;DHT22;6504;53.766;9.626;2023-05-25T06:41:37;12.70;99.90
12872;DHT22;6504;53.766;9.626;2023-05-25T06:44:07;12.80;99.90
12872;DHT22;6504;53.766;9.626;2023-05-25T06:46:35;12.90;99.90
12872;DHT22;6504;53.766;9.626;2023-05-25T06:49:05;13.00;99.90
12872;DHT22;6504;53.766;9.626;2023-05-25T06:51:33;13.10;99.90
12872;DHT22;6504;53.766;9.626;2023-05-25T06:54:01;13.10;99.90
12872;DHT22;6504;53.766;9.626;2023-05-25T06:56:29;13.20;99.90
12872;DHT22;6504;53.766;9.626;2023-05-25T06:58:57;13.30;99.90
12872;DHT22;6504;53.766;9.626;2023-05-25T07:01:29;13.40;99.90
12872;DHT22;6504;53.766;9.626;2023-05-25T07:04:00;13.40;99.90
12872;DHT22;6504;53.766;9.626;2023-05-25T07:06:28;13.50;99.90
12872;DHT22;6504;53.766;9.626;2023-05-25T07:08:56;13.60;99.90
12872;DHT22;6504;53.766;9.626;2023-05-25T07:11:26;13.70;99.90
12872;DHT22;6504;53.766;9.626;2023-05-25T07:13:58;13.80;99.90
12872;DHT22;6504;53.766;9.626;2023-05-25T07:16:31;13.90;99.90
12872;DHT22;6504;53.766;9.626;2023-05-25T07:19:05;14.00;99.90
12872;DHT22;6504;53.766;9.626;2023-05-25T07:21:36;14.10;99.90
12872;DHT22;6504;53.766;9.626;2023-05-25T07:24:08;14.10;99.90
12872;DHT22;6504;53.766;9.626;2023-05-25T07:26:40;14.20;99.90
12872;DHT22;6504;53.766;9.626;2023-05-25T07:29:14;14.30;99.90
12872;DHT22;6504;53.766;9.626;2023-05-25T07:31:49;14.30;99.90
12872;DHT22;6504;53.766;9.626;2023-05-25T07:34:21;14.40;99.90
12872;DHT22;6504;53.766;9.626;2023-05-25T07:36:55;14.50;99.90
12872;DHT22;6504;53.766;9.626;2023-05-25T07:39:27;14.60;99.90
12872;DHT22;6504;53.766;9.626;2023-05-25T07:41:59;14.70;99.90
12872;DHT22;6504;53.766;9.626;2023-05-25T07:44:35;14.80;99.90
12872;DHT22;6504;53.766;9.626;2023-05-25T07:47:10;14.90;99.90
12872;DHT22;6504;53.766;9.626;2023-05-25T07:49:43;15.00;99.90
12872;DHT22;6504;53.766;9.626;2023-05-25T07:52:17;15.00;99.90
12872;DHT22;6504;53.766;9.626;2023-05-25T07:54:50;15.10;99.90
12872;DHT22;6504;53.766;9.626;2023-05-25T07:57:25;15.20;99.90
12872;DHT22;6504;53.766;9.626;2023-05-25T07:59:57;15.20;99.90
12872;DHT22;6504;53.766;9.626;2023-05-25T08:02:31;15.20;99.90
12872;DHT22;6504;53.766;9.626;2023-05-25T08:05:05;15.30;99.90
12872;DHT22;6504;53.766;9.626;2023-05-25T08:07:37;15.30;99.90
12872;DHT22;6504;53.766;9.626;2023-05-25T08:10:11;15.40;99.90
12872;DHT22;6504;53.766;9.626;2023-05-25T08:12:45;15.50;99.90
12872;DHT22;6504;53.766;9.626;2023-05-25T08:15:19;15.60;99.90
12872;DHT22;6504;53.766;9.626;2023-05-25T08:17:52;15.60;99.90
12872;DHT22;6504;53.766;9.626;2023-05-25T08:20:28;15.70;99.90
12872;DHT22;6504;53.766;9.626;2023-05-25T08:23:01;15.70;99.90
12872;DHT22;6504;53.766;9.626;2023-05-25T08:25:37;15.80;99.90
12872;DHT22;6504;53.766;9.626;2023-05-25T08:28:10;15.80;99.90
12872;DHT22;6504;53.766;9.626;2023-05-25T08:30:43;15.80;99.90
12872;DHT22;6504;53.766;9.626;2023-05-25T08:33:21;15.80;99.90
12872;DHT22;6504;53.766;9.626;2023-05-25T08:35:55;15.80;99.90
12872;DHT22;6504;53.766;9.626;2023-05-25T08:38:28;15.80;99.90
12872;DHT22;6504;53.766;9.626;2023-05-25T08:41:06;15.90;99.90
12872;DHT22;6504;53.766;9.626;2023-05-25T08:43:41;15.90;99.90
12872;DHT22;6504;53.766;9.626;2023-05-25T08:46:12;16.00;99.90
12872;DHT22;6504;53.766;9.626;2023-05-25T08:48:44;16.10;99.90
12872;DHT22;6504;53.766;9.626;2023-05-25T08:51:15;16.10;99.90
12872;DHT22;6504;53.766;9.626;2023-05-25T08:53:44;16.10;99.90
12872;DHT22;6504;53.766;9.626;2023-05-25T08:56:15;16.10;99.90
12872;DHT22;6504;53.766;9.626;2023-05-25T08:58:47;16.20;99.90
12872;DHT22;6504;53.766;9.626;2023-05-25T09:01:20;16.30;99.90
12872;DHT22;6504;53.766;9.626;2023-05-25T09:03:51;16.30;99.90
12872;DHT22;6504;53.766;9.626;2023-05-25T09:06:22;16.40;99.90
12872;DHT22;6504;53.766;9.626;2023-05-25T09:08:51;16.40;99.90
12872;DHT22;6504;53.766;9.626;2023-05-25T09:11:19;16.50;99.90
12872;DHT22;6504;53.766;9.626;2023-05-25T09:14:03;16.60;99.90
12872;DHT22;6504;53.766;9.626;2023-05-25T09:16:31;16.70;99.90
12872;DHT22;6504;53.766;9.626;2023-05-25T09:19:01;16.60;99.90
12872;DHT22;6504;53.766;9.626;2023-05-25T09:21:29;16.60;99.90
12872;DHT22;6504;53.766;9.626;2023-05-25T09:23:58;16.70;99.90
12872;DHT22;6504;53.766;9.626;2023-05-25T09:26:26;16.80;99.90
12872;DHT22;6504;53.766;9.626;2023-05-25T09:28:55;16.90;99.90
12872;DHT22;6504;53.766;9.626;2023-05-25T09:31:23;17.00;99.90
12872;DHT22;6504;53.766;9.626;2023-05-25T09:33:51;17.00;99.90
12872;DHT22;6504;53.766;9.626;2023-05-25T09:36:27;17.00;99.90
12872;DHT22;6504;53.766;9.626;2023-05-25T09:38:55;17.10;99.90
12872;DHT22;6504;53.766;9.626;2023-05-25T09:41:25;17.20;99.90
12872;DHT22;6504;53.766;9.626;2023-05-25T09:43:55;17.30;99.90
12872;DHT22;6504;53.766;9.626;2023-05-25T09:46:37;17.30;99.90
12872;DHT22;6504;53.766;9.626;2023-05-25T09:49:07;17.40;99.90
12872;DHT22;6504;53.766;9.626;2023-05-25T09:51:37;17.50;99.90
12872;DHT22;6504;53.766;9.626;2023-05-25T09:54:08;17.50;99.90
12872;DHT22;6504;53.766;9.626;2023-05-25T09:56:36;17.50;99.90
12872;DHT22;6504;53.766;9.626;2023-05-25T09:59:05;17.60;99.90
12872;DHT22;6504;53.766;9.626;2023-05-25T10:01:33;17.60;99.90
12872;DHT22;6504;53.766;9.626;2023-05-25T10:04:02;17.70;99.90
12872;DHT22;6504;53.766;9.626;2023-05-25T10:06:31;17.80;99.90
12872;DHT22;6504;53.766;9.626;2023-05-25T10:09:01;17.90;99.90
12872;DHT22;6504;53.766;9.626;2023-05-25T10:11:33;17.90;99.90
12872;DHT22;6504;53.766;9.626;2023-05-25T10:14:06;18.00;99.90
12872;DHT22;6504;53.766;9.626;2023-05-25T10:16:35;18.10;99.90
12872;DHT22;6504;53.766;9.626;2023-05-25T10:19:06;18.20;99.90
12872;DHT22;6504;53.766;9.626;2023-05-25T10:21:37;18.30;99.90
12872;DHT22;6504;53.766;9.626;2023-05-25T10:24:14;18.30;99.90
12872;DHT22;6504;53.766;9.626;2023-05-25T10:26:49;18.40;99.90
12872;DHT22;6504;53.766;9.626;2023-05-25T10:29:19;18.50;99.90
12872;DHT22;6504;53.766;9.626;2023-05-25T10:31:50;18.50;99.90
12872;DHT22;6504;53.766;9.626;2023-05-25T10:34:20;18.60;99.90
12872;DHT22;6504;53.766;9.626;2023-05-25T10:36:50;18.60;99.90
12872;DHT22;6504;53.766;9.626;2023-05-25T10:39:21;18.70;99.90
12872;DHT22;6504;53.766;9.626;2023-05-25T10:41:51;18.70;99.90
12872;DHT22;6504;53.766;9.626;2023-05-25T10:44:19;18.80;99.90
12872;DHT22;6504;53.766;9.626;2023-05-25T10:46:48;18.90;99.90
12872;DHT22;6504;53.766;9.626;2023-05-25T10:49:26;18.90;99.90
12872;DHT22;6504;53.766;9.626;2023-05-25T10:51:57;19.00;99.90
12872;DHT22;6504;53.766;9.626;2023-05-25T10:54:29;19.00;99.90
12872;DHT22;6504;53.766;9.626;2023-05-25T10:57:09;19.00;99.90
12872;DHT22;6504;53.766;9.626;2023-05-25T10:59:40;19.00;99.90
12872;DHT22;6504;53.766;9.626;2023-05-25T11:02:11;19.00;99.90
12872;DHT22;6504;53.766;9.626;2023-05-25T11:04:39;18.90;99.90
12872;DHT22;6504;53.766;9.626;2023-05-25T11:07:08;19.00;99.90
12872;DHT22;6504;53.766;9.626;2023-05-25T11:09:55;19.00;99.90
12872;DHT22;6504;53.766;9.626;2023-05-25T11:12:24;19.00;99.90
12872;DHT22;6504;53.766;9.626;2023-05-25T11:15:17;19.00;99.90
12872;DHT22;6504;53.766;9.626;2023-05-25T11:17:57;19.10;99.90
12872;DHT22;6504;53.766;9.626;2023-05-25T11:20:28;19.10;99.90
12872;DHT22;6504;53.766;9.626;2023-05-25T11:22:57;19.10;99.90
12872;DHT22;6504;53.766;9.626;2023-05-25T11:25:37;19.20;99.90
12872;DHT22;6504;53.766;9.626;2023-05-25T11:28:07;19.20;99.90
12872;DHT22;6504;53.766;9.626;2023-05-25T11:30:38;19.30;99.90
12872;DHT22;6504;53.766;9.626;2023-05-25T11:33:07;19.30;99.90
12872;DHT22;6504;53.766;9.626;2023-05-25T11:35:36;19.40;99.90
12872;DHT22;6504;53.766;9.626;2023-05-25T11:38:05;19.40;99.90
12872;DHT22;6504;53.766;9.626;2023-05-25T11:40:34;19.50;99.90
12872;DHT22;6504;53.766;9.626;2023-05-25T11:43:07;19.50;99.90
12872;DHT22;6504;53.766;9.626;2023-05-25T11:45:36;19.40;99.90
12872;DHT22;6504;53.766;9.626;2023-05-25T11:48:05;19.40;99.90
12872;DHT22;6504;53.766;9.626;2023-05-25T11:50:33;19.50;99.90
12872;DHT22;6504;53.766;9.626;2023-05-25T11:53:03;19.50;99.90
12872;DHT22;6504;53.766;9.626;2023-05-25T11:55:32;19.60;99.90
12872;DHT22;6504;53.766;9.626;2023-05-25T11:58:01;19.70;99.90
12872;DHT22;6504;53.766;9.626;2023-05-25T12:00:30;19.80;99.90
12872;DHT22;6504;53.766;9.626;2023-05-25T12:02:59;19.90;99.90
12872;DHT22;6504;53.766;9.626;2023-05-25T12:05:36;19.90;99.90
12872;DHT22;6504;53.766;9.626;2023-05-25T12:08:04;20.00;99.90
12872;DHT22;6504;53.766;9.626;2023-05-25T12:10:32;19.90;99.90
12872;DHT22;6504;53.766;9.626;2023-05-25T12:13:01;20.00;99.90
12872;DHT22;6504;53.766;9.626;2023-05-25T12:15:31;20.10;99.90
12872;DHT22;6504;53.766;9.626;2023-05-25T12:18:00;20.20;99.90
12872;DHT22;6504;53.766;9.626;2023-05-25T12:20:28;20.30;99.90
12872;DHT22;6504;53.766;9.626;2023-05-25T12:22:56;20.40;99.90
12872;DHT22;6504;53.766;9.626;2023-05-25T12:25:25;20.40;99.90
12872;DHT22;6504;53.766;9.626;2023-05-25T12:28:13;20.50;99.90
12872;DHT22;6504;53.766;9.626;2023-05-25T12:30:42;20.40;99.90
12872;DHT22;6504;53.766;9.626;2023-05-25T12:33:12;20.30;99.90
12872;DHT22;6504;53.766;9.626;2023-05-25T12:35:45;20.30;99.90
12872;DHT22;6504;53.766;9.626;2023-05-25T12:38:15;20.20;99.90
12872;DHT22;6504;53.766;9.626;2023-05-25T12:40:43;20.20;99.90
12872;DHT22;6504;53.766;9.626;2023-05-25T12:43:14;20.40;99.90
12872;DHT22;6504;53.766;9.626;2023-05-25T12:45:44;20.50;99.90
12872;DHT22;6504;53.766;9.626;2023-05-25T12:48:13;20.50;99.90
12872;DHT22;6504;53.766;9.626;2023-05-25T12:50:55;20.50;99.90
12872;DHT22;6504;53.766;9.626;2023-05-25T12:53:23;20.50;99.90
12872;DHT22;6504;53.766;9.626;2023-05-25T12:56:00;20.50;99.90
12872;DHT22;6504;53.766;9.626;2023-05-25T12:58:29;20.50;99.90
12872;DHT22;6504;53.766;9.626;2023-05-25T13:00:58;20.50;99.90
12872;DHT22;6504;53.766;9.626;2023-05-25T13:03:27;20.60;99.90
12872;DHT22;6504;53.766;9.626;2023-05-25T13:05:59;20.60;99.90
12872;DHT22;6504;53.766;9.626;2023-05-25T13:08:28;20.70;99.90
12872;DHT22;6504;53.766;9.626;2023-05-25T13:10:56;20.80;99.90
12872;DHT22;6504;53.766;9.626;2023-05-25T13:13:25;20.80;99.90
12872;DHT22;6504;53.766;9.626;2023-05-25T13:15:53;20.90;99.90
12872;DHT22;6504;53.766;9.626;2023-05-25T13:18:23;21.10;99.90
12872;DHT22;6504;53.766;9.626;2023-05-25T13:20:51;21.00;99.90
12872;DHT22;6504;53.766;9.626;2023-05-25T13:23:22;21.00;99.90
12872;DHT22;6504;53.766;9.626;2023-05-25T13:25:50;20.90;99.90
12872;DHT22;6504;53.766;9.626;2023-05-25T13:28:18;20.90;99.90
12872;DHT22;6504;53.766;9.626;2023-05-25T13:30:46;21.00;99.90
12872;DHT22;6504;53.766;9.626;2023-05-25T13:33:15;21.00;99.90
12872;DHT22;6504;53.766;9.626;2023-05-25T13:35:44;21.00;99.90
12872;DHT22;6504;53.766;9.626;2023-05-25T13:38:24;21.00;99.90
12872;DHT22;6504;53.766;9.626;2023-05-25T13:40:52;21.10;99.90
12872;DHT22;6504;53.766;9.626;2023-05-25T13:43:20;21.00;99.90
12872;DHT22;6504;53.766;9.626;2023-05-25T13:45:49;21.00;99.90
12872;DHT22;6504;53.766;9.626;2023-05-25T13:48:17;21.10;99.90
12872;DHT22;6504;53.766;9.626;2023-05-25T13:50:46;21.10;99.90
12872;DHT22;6504;53.766;9.626;2023-05-25T13:53:15;21.10;99.90
12872;DHT22;6504;53.766;9.626;2023-05-25T13:55:43;21.20;99.90
12872;DHT22;6504;53.766;9.626;2023-05-25T13:58:11;21.20;99.90
12872;DHT22;6504;53.766;9.626;2023-05-25T14:00:39;21.30;99.90
12872;DHT22;6504;53.766;9.626;2023-05-25T14:03:07;21.30;99.90
12872;DHT22;6504;53.766;9.626;2023-05-25T14:05:36;21.30;99.90
12872;DHT22;6504;53.766;9.626;2023-05-25T14:08:05;21.30;99.90
12872;DHT22;6504;53.766;9.626;2023-05-25T14:10:33;21.30;99.90
12872;DHT22;6504;53.766;9.626;2023-05-25T14:13:01;21.20;99.90
12872;DHT22;6504;53.766;9.626;2023-05-25T14:15:29;21.20;99.90
12872;DHT22;6504;53.766;9.626;2023-05-25T14:17:57;21.20;99.90
12872;DHT22;6504;53.766;9.626;2023-05-25T14:20:26;21.20;99.90
12872;DHT22;6504;53.766;9.626;2023-05-25T14:22:54;21.20;99.90
12872;DHT22;6504;53.766;9.626;2023-05-25T14:25:23;21.00;99.90
12872;DHT22;6504;53.766;9.626;2023-05-25T14:27:51;20.90;99.90
12872;DHT22;6504;53.766;9.626;2023-05-25T14:30:19;20.80;99.90
12872;DHT22;6504;53.766;9.626;2023-05-25T14:32:48;20.90;99.90
12872;DHT22;6504;53.766;9.626;2023-05-25T14:35:19;20.90;99.90
12872;DHT22;6504;53.766;9.626;2023-05-25T14:37:47;20.90;99.90
12872;DHT22;6504;53.766;9.626;2023-05-25T14:40:15;21.00;99.90
12872;DHT22;6504;53.766;9.626;2023-05-25T14:42:45;21.00;99.90
12872;DHT22;6504;53.766;9.626;2023-05-25T14:45:13;20.90;99.90
12872;DHT22;6504;53.766;9.626;2023-05-25T14:47:42;20.90;99.90
12872;DHT22;6504;53.766;9.626;2023-05-25T14:50:10;20.90;99.90
12872;DHT22;6504;53.766;9.626;2023-05-25T14:52:38;20.90;99.90
12872;DHT22;6504;53.766;9.626;2023-05-25T14:55:08;21.00;99.90
12872;DHT22;6504;53.766;9.626;2023-05-25T14:57:36;21.00;99.90
12872;DHT22;6504;53.766;9.626;2023-05-25T15:00:07;21.10;99.90
12872;DHT22;6504;53.766;9.626;2023-05-25T15:02:35;21.00;99.90
12872;DHT22;6504;53.766;9.626;2023-05-25T15:05:04;21.00;99.90
12872;DHT22;6504;53.766;9.626;2023-05-25T15:07:32;21.00;99.90
12872;DHT22;6504;53.766;9.626;2023-05-25T15:10:00;21.00;99.90
12872;DHT22;6504;53.766;9.626;2023-05-25T15:12:28;21.00;99.90
12872;DHT22;6504;53.766;9.626;2023-05-25T15:14:56;20.90;99.90
12872;DHT22;6504;53.766;9.626;2023-05-25T15:17:26;20.90;99.90
12872;DHT22;6504;53.766;9.626;2023-05-25T15:19:54;20.90;99.90
12872;DHT22;6504;53.766;9.626;2023-05-25T15:22:23;20.90;99.90
12872;DHT22;6504;53.766;9.626;2023-05-25T15:24:51;21.00;99.90
12872;DHT22;6504;53.766;9.626;2023-05-25T15:27:19;20.90;99.90
12872;DHT22;6504;53.766;9.626;2023-05-25T15:29:47;20.90;99.90
12872;DHT22;6504;53.766;9.626;2023-05-25T15:32:15;20.90;99.90
12872;DHT22;6504;53.766;9.626;2023-05-25T15:34:45;20.90;99.90
12872;DHT22;6504;53.766;9.626;2023-05-25T15:37:13;20.80;99.90
12872;DHT22;6504;53.766;9.626;2023-05-25T15:39:41;20.80;99.90
12872;DHT22;6504;53.766;9.626;2023-05-25T15:42:09;20.80;99.90
12872;DHT22;6504;53.766;9.626;2023-05-25T15:44:37;20.80;99.90
12872;DHT22;6504;53.766;9.626;2023-05-25T15:47:05;20.80;99.90
12872;DHT22;6504;53.766;9.626;2023-05-25T15:49:33;20.80;99.90
12872;DHT22;6504;53.766;9.626;2023-05-25T15:52:04;20.70;99.90
12872;DHT22;6504;53.766;9.626;2023-05-25T15:54:33;20.60;99.90
12872;DHT22;6504;53.766;9.626;2023-05-25T15:57:01;20.50;99.90
12872;DHT22;6504;53.766;9.626;2023-05-25T15:59:29;20.50;99.90
12872;DHT22;6504;53.766;9.626;2023-05-25T16:01:57;20.40;99.90